sensor_id;sensor_type;location;lat;lon;timestamp;P1;durP1;ratioP1;P2;durP2;ratioP2
11797;SDS011;5956;51.428;6.682;2023-07-02T00:00:20;5.43;;;4.00;;
11797;SDS011;5956;51.428;6.682;2023-07-02T00:02:46;9.50;;;3.72;;
11797;SDS011;5956;51.428;6.682;2023-07-02T00:05:13;6.00;;;3.75;;
11797;SDS011;5956;51.428;6.682;2023-07-02T00:07:39;6.43;;;4.18;;
11797;SDS011;5956;51.428;6.682;2023-07-02T00:10:07;6.53;;;3.83;;
11797;SDS011;5956;51.428;6.682;2023-07-02T00:12:35;5.32;;;3.83;;
11797;SDS011;5956;51.428;6.682;2023-07-02T00:15:02;5.88;;;3.95;;
11797;SDS011;5956;51.428;6.682;2023-07-02T00:17:29;5.50;;;3.83;;
11797;SDS011;5956;51.428;6.682;2023-07-02T00:19:55;4.68;;;3.75;;
11797;SDS011;5956;51.428;6.682;2023-07-02T00:22:22;8.77;;;4.65;;
11797;SDS011;5956;51.428;6.682;2023-07-02T00:24:49;6.07;;;4.53;;
11797;SDS011;5956;51.428;6.682;2023-07-02T00:27:18;6.40;;;4.30;;
11797;SDS011;5956;51.428;6.682;2023-07-02T00:29:44;6.47;;;4.70;;
11797;SDS011;5956;51.428;6.682;2023-07-02T00:32:11;7.03;;;4.07;;
11797;SDS011;5956;51.428;6.682;2023-07-02T00:34:37;5.78;;;4.65;;
11797;SDS011;5956;51.428;6.682;2023-07-02T00:37:03;5.35;;;4.03;;
11797;SDS011;5956;51.428;6.682;2023-07-02T00:39:30;5.13;;;4.00;;
11797;SDS011;5956;51.428;6.682;2023-07-02T00:42:00;7.22;;;4.22;;
11797;SDS011;5956;51.428;6.682;2023-07-02T00:44:28;5.00;;;3.92;;
11797;SDS011;5956;51.428;6.682;2023-07-02T00:46:55;5.57;;;4.20;;
11797;SDS011;5956;51.428;6.682;2023-07-02T00:49:21;5.47;;;4.75;;
11797;SDS011;5956;51.428;6.682;2023-07-02T00:51:48;6.78;;;4.63;;
11797;SDS011;5956;51.428;6.682;2023-07-02T00:54:15;4.68;;;4.25;;
11797;SDS011;5956;51.428;6.682;2023-07-02T00:56:41;6.70;;;4.68;;
11797;SDS011;5956;51.428;6.682;2023-07-02T00:59:08;6.28;;;5.18;;
11797;SDS011;5956;51.428;6.682;2023-07-02T01:01:36;5.60;;;4.78;;
11797;SDS011;5956;51.428;6.682;2023-07-02T01:04:03;8.48;;;5.07;;
11797;SDS011;5956;51.428;6.682;2023-07-02T01:06:30;9.00;;;4.63;;
11797;SDS011;5956;51.428;6.682;2023-07-02T01:08:58;6.72;;;5.38;;
11797;SDS011;5956;51.428;6.682;2023-07-02T01:11:25;6.85;;;4.68;;
11797;SDS011;5956;51.428;6.682;2023-07-02T01:13:53;6.93;;;4.72;;
11797;SDS011;5956;51.428;6.682;2023-07-02T01:16:21;8.32;;;5.18;;
11797;SDS011;5956;51.428;6.682;2023-07-02T01:18:49;8.32;;;4.90;;
11797;SDS011;5956;51.428;6.682;2023-07-02T01:21:20;6.07;;;4.63;;
11797;SDS011;5956;51.428;6.682;2023-07-02T01:23:47;7.95;;;4.78;;
11797;SDS011;5956;51.428;6.682;2023-07-02T01:26:14;6.07;;;4.97;;
11797;SDS011;5956;51.428;6.682;2023-07-02T01:28:41;10.23;;;5.53;;
11797;SDS011;5956;51.428;6.682;2023-07-02T01:31:07;8.60;;;5.28;;
11797;SDS011;5956;51.428;6.682;2023-07-02T01:33:34;7.68;;;5.85;;
11797;SDS011;5956;51.428;6.682;2023-07-02T01:36:00;8.02;;;5.43;;
11797;SDS011;5956;51.428;6.682;2023-07-02T01:38:28;9.38;;;6.18;;
11797;SDS011;5956;51.428;6.682;2023-07-02T01:40:55;7.07;;;5.30;;
11797;SDS011;5956;51.428;6.682;2023-07-02T01:43:21;7.30;;;5.85;;
11797;SDS011;5956;51.428;6.682;2023-07-02T01:45:48;8.63;;;5.90;;
11797;SDS011;5956;51.428;6.682;2023-07-02T01:48:14;9.13;;;6.22;;
11797;SDS011;5956;51.428;6.682;2023-07-02T01:50:41;12.18;;;6.57;;
11797;SDS011;5956;51.428;6.682;2023-07-02T01:53:07;9.60;;;5.63;;
11797;SDS011;5956;51.428;6.682;2023-07-02T01:55:35;9.38;;;6.80;;
11797;SDS011;5956;51.428;6.682;2023-07-02T01:58:01;10.52;;;6.80;;
11797;SDS011;5956;51.428;6.682;2023-07-02T02:00:29;11.82;;;6.93;;
11797;SDS011;5956;51.428;6.682;2023-07-02T02:02:55;11.05;;;7.18;;
11797;SDS011;5956;51.428;6.682;2023-07-02T02:05:22;10.75;;;7.05;;
11797;SDS011;5956;51.428;6.682;2023-07-02T02:07:48;10.38;;;7.10;;
11797;SDS011;5956;51.428;6.682;2023-07-02T02:10:15;12.82;;;7.10;;
11797;SDS011;5956;51.428;6.682;2023-07-02T02:12:43;10.27;;;6.47;;
11797;SDS011;5956;51.428;6.682;2023-07-02T02:15:09;9.40;;;7.10;;
11797;SDS011;5956;51.428;6.682;2023-07-02T02:17:38;9.95;;;7.43;;
11797;SDS011;5956;51.428;6.682;2023-07-02T02:20:05;17.30;;;7.97;;
11797;SDS011;5956;51.428;6.682;2023-07-02T02:22:33;9.48;;;8.02;;
11797;SDS011;5956;51.428;6.682;2023-07-02T02:24:59;12.18;;;8.18;;
11797;SDS011;5956;51.428;6.682;2023-07-02T02:27:26;11.00;;;8.57;;
11797;SDS011;5956;51.428;6.682;2023-07-02T02:29:54;14.90;;;8.65;;
11797;SDS011;5956;51.428;6.682;2023-07-02T02:32:20;11.05;;;8.30;;
11797;SDS011;5956;51.428;6.682;2023-07-02T02:34:47;14.45;;;8.90;;
11797;SDS011;5956;51.428;6.682;2023-07-02T02:37:13;14.63;;;8.82;;
11797;SDS011;5956;51.428;6.682;2023-07-02T02:39:40;15.35;;;9.18;;
11797;SDS011;5956;51.428;6.682;2023-07-02T02:42:07;15.90;;;8.38;;
11797;SDS011;5956;51.428;6.682;2023-07-02T02:44:33;13.85;;;9.65;;
11797;SDS011;5956;51.428;6.682;2023-07-02T02:47:01;13.60;;;8.82;;
11797;SDS011;5956;51.428;6.682;2023-07-02T02:49:27;12.25;;;9.95;;
11797;SDS011;5956;51.428;6.682;2023-07-02T02:51:54;12.82;;;9.20;;
11797;SDS011;5956;51.428;6.682;2023-07-02T02:54:20;14.35;;;10.25;;
11797;SDS011;5956;51.428;6.682;2023-07-02T02:56:47;16.10;;;11.15;;
11797;SDS011;5956;51.428;6.682;2023-07-02T02:59:13;16.20;;;11.13;;
11797;SDS011;5956;51.428;6.682;2023-07-02T03:01:40;15.13;;;10.82;;
11797;SDS011;5956;51.428;6.682;2023-07-02T03:04:08;15.18;;;10.60;;
11797;SDS011;5956;51.428;6.682;2023-07-02T03:06:34;14.45;;;10.85;;
11797;SDS011;5956;51.428;6.682;2023-07-02T03:09:01;18.35;;;11.57;;
11797;SDS011;5956;51.428;6.682;2023-07-02T03:11:28;17.70;;;12.27;;
11797;SDS011;5956;51.428;6.682;2023-07-02T03:13:54;16.48;;;12.02;;
11797;SDS011;5956;51.428;6.682;2023-07-02T03:16:21;19.02;;;12.00;;
11797;SDS011;5956;51.428;6.682;2023-07-02T03:18:47;19.42;;;11.90;;
11797;SDS011;5956;51.428;6.682;2023-07-02T03:21:15;20.08;;;12.48;;
11797;SDS011;5956;51.428;6.682;2023-07-02T03:23:42;14.80;;;12.40;;
11797;SDS011;5956;51.428;6.682;2023-07-02T03:26:09;18.40;;;12.70;;
11797;SDS011;5956;51.428;6.682;2023-07-02T03:28:36;19.25;;;12.95;;
11797;SDS011;5956;51.428;6.682;2023-07-02T03:31:02;21.10;;;13.07;;
11797;SDS011;5956;51.428;6.682;2023-07-02T03:33:29;18.52;;;12.45;;
11797;SDS011;5956;51.428;6.682;2023-07-02T03:35:55;21.17;;;12.98;;
11797;SDS011;5956;51.428;6.682;2023-07-02T03:38:23;19.02;;;12.93;;
11797;SDS011;5956;51.428;6.682;2023-07-02T03:40:50;22.10;;;12.70;;
11797;SDS011;5956;51.428;6.682;2023-07-02T03:43:16;20.38;;;13.18;;
11797;SDS011;5956;51.428;6.682;2023-07-02T03:45:43;20.52;;;13.63;;
11797;SDS011;5956;51.428;6.682;2023-07-02T03:48:09;19.02;;;13.20;;
11797;SDS011;5956;51.428;6.682;2023-07-02T03:50:36;19.70;;;13.65;;
11797;SDS011;5956;51.428;6.682;2023-07-02T03:53:02;21.90;;;15.07;;
11797;SDS011;5956;51.428;6.682;2023-07-02T03:55:30;20.95;;;14.57;;
11797;SDS011;5956;51.428;6.682;2023-07-02T03:57:57;22.15;;;14.48;;
11797;SDS011;5956;51.428;6.682;2023-07-02T04:00:23;16.23;;;13.43;;
11797;SDS011;5956;51.428;6.682;2023-07-02T04:02:50;20.75;;;14.55;;
11797;SDS011;5956;51.428;6.682;2023-07-02T04:05:16;21.13;;;15.90;;
11797;SDS011;5956;51.428;6.682;2023-07-02T04:07:43;24.30;;;16.45;;
11797;SDS011;5956;51.428;6.682;2023-07-02T04:10:09;21.63;;;13.95;;
11797;SDS011;5956;51.428;6.682;2023-07-02T04:12:37;20.50;;;14.70;;
11797;SDS011;5956;51.428;6.682;2023-07-02T04:15:04;20.52;;;14.82;;
11797;SDS011;5956;51.428;6.682;2023-07-02T04:17:30;20.45;;;14.90;;
11797;SDS011;5956;51.428;6.682;2023-07-02T04:19:57;21.02;;;16.27;;
11797;SDS011;5956;51.428;6.682;2023-07-02T04:22:24;20.35;;;14.55;;
11797;SDS011;5956;51.428;6.682;2023-07-02T04:24:50;20.95;;;15.30;;
11797;SDS011;5956;51.428;6.682;2023-07-02T04:27:17;21.33;;;14.90;;
11797;SDS011;5956;51.428;6.682;2023-07-02T04:29:45;24.75;;;16.02;;
11797;SDS011;5956;51.428;6.682;2023-07-02T04:32:11;22.40;;;15.35;;
11797;SDS011;5956;51.428;6.682;2023-07-02T04:34:38;23.13;;;15.07;;
11797;SDS011;5956;51.428;6.682;2023-07-02T04:37:05;25.60;;;16.35;;
11797;SDS011;5956;51.428;6.682;2023-07-02T04:39:31;24.10;;;18.20;;
11797;SDS011;5956;51.428;6.682;2023-07-02T04:41:59;23.65;;;17.00;;
11797;SDS011;5956;51.428;6.682;2023-07-02T04:44:25;23.23;;;16.10;;
11797;SDS011;5956;51.428;6.682;2023-07-02T04:46:57;25.20;;;17.20;;
11797;SDS011;5956;51.428;6.682;2023-07-02T04:49:24;24.23;;;16.58;;
11797;SDS011;5956;51.428;6.682;2023-07-02T04:51:51;21.90;;;16.30;;
11797;SDS011;5956;51.428;6.682;2023-07-02T04:54:18;29.33;;;17.10;;
11797;SDS011;5956;51.428;6.682;2023-07-02T04:56:45;22.88;;;15.55;;
11797;SDS011;5956;51.428;6.682;2023-07-02T04:59:11;22.70;;;16.85;;
11797;SDS011;5956;51.428;6.682;2023-07-02T05:01:38;23.58;;;17.90;;
11797;SDS011;5956;51.428;6.682;2023-07-02T05:04:06;24.00;;;16.98;;
11797;SDS011;5956;51.428;6.682;2023-07-02T05:06:32;22.67;;;16.40;;
11797;SDS011;5956;51.428;6.682;2023-07-02T05:08:59;22.90;;;16.52;;
11797;SDS011;5956;51.428;6.682;2023-07-02T05:11:25;28.38;;;21.38;;
11797;SDS011;5956;51.428;6.682;2023-07-02T05:13:52;23.42;;;19.15;;
11797;SDS011;5956;51.428;6.682;2023-07-02T05:16:18;24.60;;;17.55;;
11797;SDS011;5956;51.428;6.682;2023-07-02T05:18:45;24.10;;;16.55;;
11797;SDS011;5956;51.428;6.682;2023-07-02T05:21:17;26.63;;;17.52;;
11797;SDS011;5956;51.428;6.682;2023-07-02T05:23:43;22.92;;;16.58;;
11797;SDS011;5956;51.428;6.682;2023-07-02T05:26:10;24.40;;;17.45;;
11797;SDS011;5956;51.428;6.682;2023-07-02T05:28:36;22.80;;;17.38;;
11797;SDS011;5956;51.428;6.682;2023-07-02T05:31:03;22.88;;;17.40;;
11797;SDS011;5956;51.428;6.682;2023-07-02T05:33:29;22.67;;;17.55;;
11797;SDS011;5956;51.428;6.682;2023-07-02T05:35:57;23.63;;;17.92;;
11797;SDS011;5956;51.428;6.682;2023-07-02T05:38:25;24.83;;;17.13;;
11797;SDS011;5956;51.428;6.682;2023-07-02T05:40:51;24.73;;;17.25;;
11797;SDS011;5956;51.428;6.682;2023-07-02T05:43:18;25.88;;;17.80;;
11797;SDS011;5956;51.428;6.682;2023-07-02T05:45:44;26.55;;;16.90;;
11797;SDS011;5956;51.428;6.682;2023-07-02T05:48:11;25.48;;;18.70;;
11797;SDS011;5956;51.428;6.682;2023-07-02T05:50:37;27.95;;;20.27;;
11797;SDS011;5956;51.428;6.682;2023-07-02T05:53:04;25.25;;;17.83;;
11797;SDS011;5956;51.428;6.682;2023-07-02T05:55:31;26.42;;;17.33;;
11797;SDS011;5956;51.428;6.682;2023-07-02T05:57:58;23.90;;;17.42;;
11797;SDS011;5956;51.428;6.682;2023-07-02T06:00:26;22.80;;;16.02;;
11797;SDS011;5956;51.428;6.682;2023-07-02T06:02:53;24.90;;;16.95;;
11797;SDS011;5956;51.428;6.682;2023-07-02T06:05:19;24.95;;;15.65;;
11797;SDS011;5956;51.428;6.682;2023-07-02T06:07:46;28.65;;;16.40;;
11797;SDS011;5956;51.428;6.682;2023-07-02T06:10:12;21.77;;;15.63;;
11797;SDS011;5956;51.428;6.682;2023-07-02T06:12:41;27.15;;;16.25;;
11797;SDS011;5956;51.428;6.682;2023-07-02T06:15:08;22.85;;;15.88;;
11797;SDS011;5956;51.428;6.682;2023-07-02T06:17:35;22.35;;;17.05;;
11797;SDS011;5956;51.428;6.682;2023-07-02T06:20:02;21.63;;;16.00;;
11797;SDS011;5956;51.428;6.682;2023-07-02T06:22:29;21.77;;;15.15;;
11797;SDS011;5956;51.428;6.682;2023-07-02T06:24:56;24.42;;;15.48;;
11797;SDS011;5956;51.428;6.682;2023-07-02T06:27:22;22.45;;;15.13;;
11797;SDS011;5956;51.428;6.682;2023-07-02T06:29:50;20.45;;;15.68;;
11797;SDS011;5956;51.428;6.682;2023-07-02T06:32:17;24.05;;;15.95;;
11797;SDS011;5956;51.428;6.682;2023-07-02T06:34:44;24.25;;;15.43;;
11797;SDS011;5956;51.428;6.682;2023-07-02T06:37:11;23.02;;;14.48;;
11797;SDS011;5956;51.428;6.682;2023-07-02T06:39:37;27.50;;;19.15;;
11797;SDS011;5956;51.428;6.682;2023-07-02T06:42:04;20.58;;;14.95;;
11797;SDS011;5956;51.428;6.682;2023-07-02T06:44:30;24.00;;;16.23;;
11797;SDS011;5956;51.428;6.682;2023-07-02T06:46:58;20.17;;;15.63;;
11797;SDS011;5956;51.428;6.682;2023-07-02T06:49:25;23.73;;;15.55;;
11797;SDS011;5956;51.428;6.682;2023-07-02T06:51:51;22.55;;;15.57;;
11797;SDS011;5956;51.428;6.682;2023-07-02T06:54:17;25.65;;;15.68;;
11797;SDS011;5956;51.428;6.682;2023-07-02T06:56:44;23.08;;;15.85;;
11797;SDS011;5956;51.428;6.682;2023-07-02T06:59:10;23.15;;;16.17;;
11797;SDS011;5956;51.428;6.682;2023-07-02T07:01:37;21.67;;;15.30;;
11797;SDS011;5956;51.428;6.682;2023-07-02T07:04:05;24.33;;;16.02;;
11797;SDS011;5956;51.428;6.682;2023-07-02T07:06:31;21.85;;;15.15;;
11797;SDS011;5956;51.428;6.682;2023-07-02T07:08:58;13.13;;;10.52;;
11797;SDS011;5956;51.428;6.682;2023-07-02T07:11:25;21.70;;;13.57;;
11797;SDS011;5956;51.428;6.682;2023-07-02T07:13:51;19.42;;;12.57;;
11797;SDS011;5956;51.428;6.682;2023-07-02T07:16:18;20.88;;;12.32;;
11797;SDS011;5956;51.428;6.682;2023-07-02T07:18:44;20.83;;;11.73;;
11797;SDS011;5956;51.428;6.682;2023-07-02T07:21:12;17.75;;;9.98;;
11797;SDS011;5956;51.428;6.682;2023-07-02T07:23:39;16.27;;;10.60;;
11797;SDS011;5956;51.428;6.682;2023-07-02T07:26:06;14.65;;;9.88;;
11797;SDS011;5956;51.428;6.682;2023-07-02T07:28:32;21.98;;;15.00;;
11797;SDS011;5956;51.428;6.682;2023-07-02T07:30:59;17.48;;;12.98;;
11797;SDS011;5956;51.428;6.682;2023-07-02T07:33:25;14.73;;;10.40;;
11797;SDS011;5956;51.428;6.682;2023-07-02T07:35:51;16.10;;;10.10;;
11797;SDS011;5956;51.428;6.682;2023-07-02T07:38:19;16.75;;;10.73;;
11797;SDS011;5956;51.428;6.682;2023-07-02T07:40:46;17.63;;;9.95;;
11797;SDS011;5956;51.428;6.682;2023-07-02T07:43:12;15.90;;;10.18;;
11797;SDS011;5956;51.428;6.682;2023-07-02T07:45:39;15.40;;;9.90;;
11797;SDS011;5956;51.428;6.682;2023-07-02T07:48:05;15.70;;;10.30;;
11797;SDS011;5956;51.428;6.682;2023-07-02T07:50:32;14.73;;;9.85;;
11797;SDS011;5956;51.428;6.682;2023-07-02T07:52:58;14.15;;;9.30;;
11797;SDS011;5956;51.428;6.682;2023-07-02T07:55:26;13.85;;;8.85;;
11797;SDS011;5956;51.428;6.682;2023-07-02T07:57:53;13.93;;;9.07;;
11797;SDS011;5956;51.428;6.682;2023-07-02T08:00:19;13.88;;;8.43;;
11797;SDS011;5956;51.428;6.682;2023-07-02T08:02:46;12.25;;;8.32;;
11797;SDS011;5956;51.428;6.682;2023-07-02T08:05:13;13.70;;;8.80;;
11797;SDS011;5956;51.428;6.682;2023-07-02T08:07:39;11.25;;;8.52;;
11797;SDS011;5956;51.428;6.682;2023-07-02T08:10:06;13.68;;;8.68;;
11797;SDS011;5956;51.428;6.682;2023-07-02T08:12:35;12.57;;;8.00;;
11797;SDS011;5956;51.428;6.682;2023-07-02T08:15:01;12.88;;;8.35;;
11797;SDS011;5956;51.428;6.682;2023-07-02T08:17:28;12.50;;;7.53;;
11797;SDS011;5956;51.428;6.682;2023-07-02T08:19:55;19.63;;;8.45;;
11797;SDS011;5956;51.428;6.682;2023-07-02T08:22:22;13.88;;;7.63;;
11797;SDS011;5956;51.428;6.682;2023-07-02T08:24:48;11.73;;;8.05;;
11797;SDS011;5956;51.428;6.682;2023-07-02T08:27:15;13.70;;;7.30;;
11797;SDS011;5956;51.428;6.682;2023-07-02T08:29:45;13.77;;;7.78;;
11797;SDS011;5956;51.428;6.682;2023-07-02T08:32:12;9.80;;;7.05;;
11797;SDS011;5956;51.428;6.682;2023-07-02T08:34:38;9.38;;;7.07;;
11797;SDS011;5956;51.428;6.682;2023-07-02T08:37:05;11.43;;;6.65;;
11797;SDS011;5956;51.428;6.682;2023-07-02T08:39:31;12.25;;;7.80;;
11797;SDS011;5956;51.428;6.682;2023-07-02T08:41:58;8.82;;;6.25;;
11797;SDS011;5956;51.428;6.682;2023-07-02T08:44:24;8.68;;;7.65;;
11797;SDS011;5956;51.428;6.682;2023-07-02T08:46:54;12.75;;;6.90;;
11797;SDS011;5956;51.428;6.682;2023-07-02T08:49:22;9.38;;;7.13;;
11797;SDS011;5956;51.428;6.682;2023-07-02T08:51:48;10.65;;;7.43;;
11797;SDS011;5956;51.428;6.682;2023-07-02T08:54:15;14.30;;;7.75;;
11797;SDS011;5956;51.428;6.682;2023-07-02T08:56:43;9.00;;;7.00;;
11797;SDS011;5956;51.428;6.682;2023-07-02T08:59:10;9.50;;;6.82;;
11797;SDS011;5956;51.428;6.682;2023-07-02T09:01:44;10.75;;;7.45;;
11797;SDS011;5956;51.428;6.682;2023-07-02T09:04:15;12.25;;;7.43;;
11797;SDS011;5956;51.428;6.682;2023-07-02T09:06:42;11.75;;;8.15;;
11797;SDS011;5956;51.428;6.682;2023-07-02T09:09:08;11.45;;;7.78;;
11797;SDS011;5956;51.428;6.682;2023-07-02T09:11:35;10.98;;;8.23;;
11797;SDS011;5956;51.428;6.682;2023-07-02T09:14:12;9.85;;;7.40;;
11797;SDS011;5956;51.428;6.682;2023-07-02T09:16:38;9.63;;;7.55;;
11797;SDS011;5956;51.428;6.682;2023-07-02T09:19:07;12.32;;;7.97;;
11797;SDS011;5956;51.428;6.682;2023-07-02T09:21:42;11.43;;;7.50;;
11797;SDS011;5956;51.428;6.682;2023-07-02T09:24:13;13.25;;;8.13;;
11797;SDS011;5956;51.428;6.682;2023-07-02T09:26:41;10.77;;;7.53;;
11797;SDS011;5956;51.428;6.682;2023-07-02T09:29:08;14.02;;;8.43;;
11797;SDS011;5956;51.428;6.682;2023-07-02T09:31:42;11.80;;;8.45;;
11797;SDS011;5956;51.428;6.682;2023-07-02T09:34:09;12.88;;;8.63;;
11797;SDS011;5956;51.428;6.682;2023-07-02T09:36:35;11.52;;;8.32;;
11797;SDS011;5956;51.428;6.682;2023-07-02T09:39:07;12.10;;;8.18;;
11797;SDS011;5956;51.428;6.682;2023-07-02T09:41:33;16.38;;;9.10;;
11797;SDS011;5956;51.428;6.682;2023-07-02T09:44:00;11.52;;;7.93;;
11797;SDS011;5956;51.428;6.682;2023-07-02T09:46:27;11.50;;;7.13;;
11797;SDS011;5956;51.428;6.682;2023-07-02T09:48:54;10.55;;;7.28;;
11797;SDS011;5956;51.428;6.682;2023-07-02T09:51:21;9.95;;;7.35;;
11797;SDS011;5956;51.428;6.682;2023-07-02T09:53:48;9.57;;;6.88;;
11797;SDS011;5956;51.428;6.682;2023-07-02T09:56:16;10.20;;;6.75;;
11797;SDS011;5956;51.428;6.682;2023-07-02T09:58:43;11.70;;;7.72;;
11797;SDS011;5956;51.428;6.682;2023-07-02T10:01:11;8.88;;;6.40;;
11797;SDS011;5956;51.428;6.682;2023-07-02T10:03:37;10.77;;;6.78;;
11797;SDS011;5956;51.428;6.682;2023-07-02T10:06:04;11.38;;;7.05;;
11797;SDS011;5956;51.428;6.682;2023-07-02T10:08:31;9.20;;;5.95;;
11797;SDS011;5956;51.428;6.682;2023-07-02T10:11:06;9.73;;;7.13;;
11797;SDS011;5956;51.428;6.682;2023-07-02T10:13:34;10.63;;;6.90;;
11797;SDS011;5956;51.428;6.682;2023-07-02T10:16:00;10.98;;;7.00;;
11797;SDS011;5956;51.428;6.682;2023-07-02T10:18:27;8.25;;;6.50;;
11797;SDS011;5956;51.428;6.682;2023-07-02T10:20:53;8.98;;;6.60;;
11797;SDS011;5956;51.428;6.682;2023-07-02T10:23:20;12.23;;;7.38;;
11797;SDS011;5956;51.428;6.682;2023-07-02T10:25:46;9.90;;;7.43;;
11797;SDS011;5956;51.428;6.682;2023-07-02T10:28:13;8.57;;;6.32;;
11797;SDS011;5956;51.428;6.682;2023-07-02T10:30:42;10.98;;;7.25;;
11797;SDS011;5956;51.428;6.682;2023-07-02T10:33:09;11.35;;;7.68;;
11797;SDS011;5956;51.428;6.682;2023-07-02T10:35:35;9.30;;;7.03;;
11797;SDS011;5956;51.428;6.682;2023-07-02T10:38:02;10.07;;;6.93;;
11797;SDS011;5956;51.428;6.682;2023-07-02T10:40:29;10.90;;;7.72;;
11797;SDS011;5956;51.428;6.682;2023-07-02T10:42:56;12.38;;;7.07;;
11797;SDS011;5956;51.428;6.682;2023-07-02T10:45:30;9.15;;;6.70;;
11797;SDS011;5956;51.428;6.682;2023-07-02T10:47:58;9.43;;;6.22;;
11797;SDS011;5956;51.428;6.682;2023-07-02T10:50:26;10.60;;;6.30;;
11797;SDS011;5956;51.428;6.682;2023-07-02T10:52:53;7.95;;;6.80;;
11797;SDS011;5956;51.428;6.682;2023-07-02T10:55:20;9.07;;;6.70;;
11797;SDS011;5956;51.428;6.682;2023-07-02T10:57:47;9.88;;;7.28;;
11797;SDS011;5956;51.428;6.682;2023-07-02T11:00:13;13.25;;;6.40;;
11797;SDS011;5956;51.428;6.682;2023-07-02T11:02:40;10.88;;;7.03;;
11797;SDS011;5956;51.428;6.682;2023-07-02T11:05:08;11.07;;;6.80;;
11797;SDS011;5956;51.428;6.682;2023-07-02T11:07:37;12.15;;;7.03;;
11797;SDS011;5956;51.428;6.682;2023-07-02T11:10:04;8.70;;;6.50;;
11797;SDS011;5956;51.428;6.682;2023-07-02T11:12:30;13.45;;;7.40;;
11797;SDS011;5956;51.428;6.682;2023-07-02T11:15:06;8.15;;;6.93;;
11797;SDS011;5956;51.428;6.682;2023-07-02T11:17:33;11.77;;;7.05;;
11797;SDS011;5956;51.428;6.682;2023-07-02T11:19:59;9.68;;;6.63;;
11797;SDS011;5956;51.428;6.682;2023-07-02T11:22:32;13.05;;;6.70;;
11797;SDS011;5956;51.428;6.682;2023-07-02T11:25:07;7.95;;;6.28;;
11797;SDS011;5956;51.428;6.682;2023-07-02T11:27:34;8.43;;;5.90;;
11797;SDS011;5956;51.428;6.682;2023-07-02T11:30:00;11.52;;;6.40;;
11797;SDS011;5956;51.428;6.682;2023-07-02T11:32:27;8.85;;;6.47;;
11797;SDS011;5956;51.428;6.682;2023-07-02T11:34:53;7.50;;;5.85;;
11797;SDS011;5956;51.428;6.682;2023-07-02T11:37:20;8.48;;;6.70;;
11797;SDS011;5956;51.428;6.682;2023-07-02T11:39:48;7.93;;;5.97;;
11797;SDS011;5956;51.428;6.682;2023-07-02T11:42:14;6.80;;;5.82;;
11797;SDS011;5956;51.428;6.682;2023-07-02T11:44:41;10.05;;;6.75;;
11797;SDS011;5956;51.428;6.682;2023-07-02T11:47:07;7.95;;;6.40;;
11797;SDS011;5956;51.428;6.682;2023-07-02T11:49:34;9.25;;;6.55;;
11797;SDS011;5956;51.428;6.682;2023-07-02T11:52:00;8.85;;;6.38;;
11797;SDS011;5956;51.428;6.682;2023-07-02T11:54:27;9.18;;;6.85;;
11797;SDS011;5956;51.428;6.682;2023-07-02T11:56:55;9.80;;;6.68;;
11797;SDS011;5956;51.428;6.682;2023-07-02T11:59:21;8.98;;;5.97;;
11797;SDS011;5956;51.428;6.682;2023-07-02T12:01:48;9.43;;;5.97;;
11797;SDS011;5956;51.428;6.682;2023-07-02T12:04:14;9.07;;;6.32;;
11797;SDS011;5956;51.428;6.682;2023-07-02T12:06:41;10.93;;;7.20;;
11797;SDS011;5956;51.428;6.682;2023-07-02T12:09:08;9.65;;;6.80;;
11797;SDS011;5956;51.428;6.682;2023-07-02T12:11:35;8.73;;;6.53;;
11797;SDS011;5956;51.428;6.682;2023-07-02T12:14:03;10.30;;;6.82;;
11797;SDS011;5956;51.428;6.682;2023-07-02T12:16:30;9.73;;;6.40;;
11797;SDS011;5956;51.428;6.682;2023-07-02T12:18:56;11.07;;;6.72;;
11797;SDS011;5956;51.428;6.682;2023-07-02T12:21:23;12.05;;;7.07;;
11797;SDS011;5956;51.428;6.682;2023-07-02T12:23:49;9.65;;;6.95;;
11797;SDS011;5956;51.428;6.682;2023-07-02T12:26:16;7.80;;;6.10;;
11797;SDS011;5956;51.428;6.682;2023-07-02T12:28:42;10.43;;;7.15;;
11797;SDS011;5956;51.428;6.682;2023-07-02T12:31:10;10.32;;;6.82;;
11797;SDS011;5956;51.428;6.682;2023-07-02T12:33:38;8.15;;;6.35;;
11797;SDS011;5956;51.428;6.682;2023-07-02T12:36:04;8.43;;;6.25;;
11797;SDS011;5956;51.428;6.682;2023-07-02T12:38:31;11.10;;;6.72;;
11797;SDS011;5956;51.428;6.682;2023-07-02T12:40:57;12.13;;;7.28;;
11797;SDS011;5956;51.428;6.682;2023-07-02T12:43:24;9.73;;;7.32;;
11797;SDS011;5956;51.428;6.682;2023-07-02T12:45:50;12.55;;;7.45;;
11797;SDS011;5956;51.428;6.682;2023-07-02T12:48:19;10.18;;;6.93;;
11797;SDS011;5956;51.428;6.682;2023-07-02T12:50:53;10.48;;;7.60;;
11797;SDS011;5956;51.428;6.682;2023-07-02T12:53:19;10.23;;;7.35;;
11797;SDS011;5956;51.428;6.682;2023-07-02T12:55:46;11.98;;;7.30;;
11797;SDS011;5956;51.428;6.682;2023-07-02T12:58:12;12.10;;;7.18;;
11797;SDS011;5956;51.428;6.682;2023-07-02T13:00:38;11.73;;;8.10;;
11797;SDS011;5956;51.428;6.682;2023-07-02T13:03:09;10.25;;;7.15;;
11797;SDS011;5956;51.428;6.682;2023-07-02T13:05:37;12.75;;;7.85;;
11797;SDS011;5956;51.428;6.682;2023-07-02T13:08:04;10.07;;;7.57;;
11797;SDS011;5956;51.428;6.682;2023-07-02T13:10:31;11.85;;;8.38;;
11797;SDS011;5956;51.428;6.682;2023-07-02T13:12:58;14.23;;;8.60;;
11797;SDS011;5956;51.428;6.682;2023-07-02T13:15:25;13.23;;;8.27;;
11797;SDS011;5956;51.428;6.682;2023-07-02T13:17:51;11.68;;;7.93;;
11797;SDS011;5956;51.428;6.682;2023-07-02T13:20:18;11.85;;;7.90;;
11797;SDS011;5956;51.428;6.682;2023-07-02T13:22:45;11.02;;;7.95;;
11797;SDS011;5956;51.428;6.682;2023-07-02T13:25:12;12.85;;;7.97;;
11797;SDS011;5956;51.428;6.682;2023-07-02T13:27:38;10.23;;;7.50;;
11797;SDS011;5956;51.428;6.682;2023-07-02T13:30:05;13.45;;;8.32;;
11797;SDS011;5956;51.428;6.682;2023-07-02T13:32:32;11.10;;;8.10;;
11797;SDS011;5956;51.428;6.682;2023-07-02T13:34:58;10.80;;;7.93;;
11797;SDS011;5956;51.428;6.682;2023-07-02T13:37:25;12.48;;;8.07;;
11797;SDS011;5956;51.428;6.682;2023-07-02T13:39:53;11.05;;;7.82;;
11797;SDS011;5956;51.428;6.682;2023-07-02T13:42:19;11.60;;;8.32;;
11797;SDS011;5956;51.428;6.682;2023-07-02T13:44:46;13.80;;;8.55;;
11797;SDS011;5956;51.428;6.682;2023-07-02T13:47:12;11.60;;;8.48;;
11797;SDS011;5956;51.428;6.682;2023-07-02T13:49:39;12.32;;;8.07;;
11797;SDS011;5956;51.428;6.682;2023-07-02T13:52:05;12.18;;;8.25;;
11797;SDS011;5956;51.428;6.682;2023-07-02T13:54:32;12.63;;;8.43;;
11797;SDS011;5956;51.428;6.682;2023-07-02T13:57:00;12.95;;;7.85;;
11797;SDS011;5956;51.428;6.682;2023-07-02T13:59:27;11.18;;;8.50;;
11797;SDS011;5956;51.428;6.682;2023-07-02T14:01:54;11.88;;;8.20;;
11797;SDS011;5956;51.428;6.682;2023-07-02T14:04:20;10.90;;;8.25;;
11797;SDS011;5956;51.428;6.682;2023-07-02T14:06:47;11.25;;;8.32;;
11797;SDS011;5956;51.428;6.682;2023-07-02T14:09:13;11.68;;;8.43;;
11797;SDS011;5956;51.428;6.682;2023-07-02T14:11:40;11.30;;;8.48;;
11797;SDS011;5956;51.428;6.682;2023-07-02T14:14:08;13.98;;;8.32;;
11797;SDS011;5956;51.428;6.682;2023-07-02T14:16:36;16.52;;;8.65;;
11797;SDS011;5956;51.428;6.682;2023-07-02T14:19:02;11.15;;;8.00;;
11797;SDS011;5956;51.428;6.682;2023-07-02T14:21:29;12.40;;;8.60;;
11797;SDS011;5956;51.428;6.682;2023-07-02T14:23:56;14.38;;;8.30;;
11797;SDS011;5956;51.428;6.682;2023-07-02T14:26:23;12.57;;;9.07;;
11797;SDS011;5956;51.428;6.682;2023-07-02T14:28:50;14.15;;;8.82;;
11797;SDS011;5956;51.428;6.682;2023-07-02T14:31:16;13.13;;;8.40;;
11797;SDS011;5956;51.428;6.682;2023-07-02T14:33:44;11.20;;;8.88;;
11797;SDS011;5956;51.428;6.682;2023-07-02T14:36:10;14.32;;;8.32;;
11797;SDS011;5956;51.428;6.682;2023-07-02T14:38:37;14.90;;;8.68;;
11797;SDS011;5956;51.428;6.682;2023-07-02T14:41:03;10.18;;;8.05;;
11797;SDS011;5956;51.428;6.682;2023-07-02T14:43:30;10.82;;;8.15;;
11797;SDS011;5956;51.428;6.682;2023-07-02T14:45:58;13.32;;;8.20;;